Предлагаем Вашему вниманию английскую версию страницы: AUTOTAF.ME 13160 - aviation weather forecast Sombor

AUTOTAF 13160 - авиапрогноз Sombor

Сегодня рассвет 04:42 UTC, восход солнца 05:13 UTC,
местный полдень 10:27 UTC, заход солнца 15:41 UTC,
наступление темноты 16:11 UTC.

Краткий прогноз 13160 на 9 часов

AUTOTAF.ME 13160 242000Z 2421/2506 VRB02MPS 5000 BKN008 OVC010CB   
   TEMPO 2421/2422 -TSRA  
  FM250000 VRB02MPS 3000 -RA BR OVC005 
  BECMG 2501/2503 OVC002  
  BECMG 2504/2506 OVC003

Детальный прогноз 13160 на 24 часа

AUTOTAF.ME 13160 242000Z 2421/2521 VRB02MPS 5000 BKN008 OVC010CB TX14/2421Z TN12/2518Z 
   TEMPO 2421/2422 -TSRA  
  FM250000 VRB02MPS 3000 -RA BR OVC005 
  BECMG 2501/2503 OVC002  
  BECMG 2504/2506 OVC003   
  FM251200 VRB02MPS 5000 -RA BR OVC004  
  FM251800 VRB02MPS 2000 BR BKN005 
  BECMG 2519/2521 1000

Подробный табличный прогноз

Время (UTC) miniAUTOTAF на 3 ч WX FZLVL
M AGL
ICE TURB Т
(°С)
Тd
(°С)
f(%) QNH
(гПа)
WIND/T
18 18003MPS 9999 OVC008 2700 FBL FL110/FL190 15 13 86 1016 ...
21 VRB02MPS 5000 BKN008 OVC010CB TEMPO -TSRA -TSRA 2700 MOD FL150/FL170 14 13 94 1015 ...
25.10.2020
00 VRB02MPS 3000 -RA BR OVC005 -RA BR 2550 MOD FL110/FL120 13 12 91 1014 ...
03 VRB02MPS 3000 -RA BR OVC002 -RA BR 2400 MOD FL90/FL100 13 13 96 1013 ...
06 VRB02MPS 3000 -RA BR OVC003 -RA BR 2550 MOD FL110/FL120 13 13 94 1013 ...
09 VRB02MPS 3000 -RA BR OVC003 -RA BR 2400 MOD FL90/FL100 14 13 94 1014 ...
12 VRB02MPS 5000 -RA BR OVC004 -RA BR 2550 FBL FL90/FL190 14 12 91 1013 ...
15 VRB02MPS 5000 -RA BR OVC005 -RA BR 2400 FBL FL90/FL110 13 12 91 1013 ...
18 VRB02MPS 2000 BR BKN005 BR 2550 FBL FL90/FL100 12 11 94 1013 ...
21 VRB02MPS 1000 BR BKN003 BR 2700 12 11 95 1013 ...
26.10.2020
00 17003MPS 1000 BR BKN003 BR 2700 11 10 95 1013 ...
03 18003MPS 1000 BR BKN003 BR 3000 11 10 96 1012 ...
06 17004MPS 5000 BR BKN007 BR 3000 11 10 93 1012 ...
09 18004MPS 9999 SCT045 3300 MOD SFC/FL20 16 10 69 1012 ...
12 19007MPS 9999 SCT029 3600 MOD SFC/FL30 20 9 51 1010 ...
15 19003MPS 9999 SKC 3300 MOD SFC/FL30 18 10 59 1009 ...


Широта 45.8°, долгота 19.2°, высота 89 м абс.
Средняя высота рельефа местности 90 м абс.
Прогнозы обновляются четыре раза в сутки: в 02, 08, 14, 20 ч всемирного времени.


Выбрать прогноз по другой модели Sombor
Онлайн-сводка гроз по Sombor (для РФ и ближнего зарубежья)
Карта фактических гроз в окрестностях Sombor
Динамические прогностические карты (ventusky.com)
Прогностическая карта высоты нижней границы облаков по Sombor (windy.com)
Выбрать другой город

Прогноз предназначен для личного научно-познавательного использования частными лицами
и не предназначен для принятия важных решений и выполнения реальных полётов воздушных судов

При копировании или ином использовании любых материалов данного сайта ссылка на © meteocenter.asia обязательна.

0.92/1.4